Terminal Aerodrome Forecast
Issued by NWS Billings, MT

Home | Current Version | Previous Version | Text Only | Print | Product List | Glossary On
Versions: 1 2 3 4 5 6 7 8 9 10 11 12 13 14 15 16 17 18 19 20 21 22 23 24 25 26 27
000
FTUS45 KBYZ 231639 AAA
TAFMLS
TAF AMD
KMLS 231639Z 2317/2412 06007KT 1SM BR VV003
      TEMPO 2317/2319 1/4SM FZFG
     FM231930 03007KT 3SM BR SCT002 OVC007
     FM240400 01006KT 3SM -SN BR OVC003=

USA.gov is the U.S. government's official web portal to all federal, state and local government web resources and services.